createdAt,value
2022-11-14T00:01:21.455Z,2.20
2022-11-14T00:03:51.359Z,3.50
2022-11-14T00:06:21.363Z,3.50
2022-11-14T00:08:51.211Z,3.50
2022-11-14T00:11:21.298Z,3.50
2022-11-14T00:13:51.308Z,1.20
2022-11-14T00:16:21.289Z,1.20
2022-11-14T00:21:21.503Z,1.20
2022-11-14T00:23:51.207Z,0.30
2022-11-14T00:26:21.404Z,0.30
2022-11-14T00:28:51.406Z,0.30
2022-11-14T00:31:21.434Z,0.30
2022-11-14T00:33:51.334Z,1.40
2022-11-14T00:36:21.354Z,1.40
2022-11-14T00:38:52.866Z,1.40
2022-11-14T00:41:21.928Z,1.40
2022-11-14T00:43:51.367Z,0.20
2022-11-14T00:46:21.271Z,0.20
2022-11-14T00:48:51.363Z,0.20
2022-11-14T00:51:21.439Z,0.20
2022-11-14T00:53:51.528Z,0.70
2022-11-14T00:56:21.698Z,0.70
2022-11-14T01:01:21.766Z,0.70
2022-11-14T01:03:51.548Z,0.40
2022-11-14T01:06:21.327Z,0.40
2022-11-14T01:08:51.617Z,0.40
2022-11-14T01:11:21.856Z,0.40
2022-11-14T01:13:51.233Z,0.30
2022-11-14T01:16:21.498Z,0.30
2022-11-14T01:18:51.197Z,0.30
2022-11-14T01:21:21.367Z,0.30
2022-11-14T01:23:51.265Z,0.60
2022-11-14T01:26:21.495Z,0.60
2022-11-14T01:28:52.229Z,0.60
2022-11-14T01:31:23.419Z,0.60
2022-11-14T01:36:21.552Z,0.20
2022-11-14T01:38:51.981Z,0.20
2022-11-14T01:41:21.636Z,0.20
2022-11-14T01:43:51.224Z,0.70
2022-11-14T01:46:25.045Z,0.70
2022-11-14T01:48:54.666Z,0.70
2022-11-14T01:51:25.317Z,0.70
2022-11-14T01:53:53.964Z,1.20
2022-11-14T01:56:27.578Z,1.20
2022-11-14T01:58:55.098Z,1.20
2022-11-14T02:01:21.398Z,1.20
2022-11-14T02:03:53.586Z,0.60
2022-11-14T02:06:25.041Z,0.60
2022-11-14T02:08:52.077Z,0.60
2022-11-14T02:11:21.590Z,0.60
2022-11-14T02:13:51.371Z,0.10
2022-11-14T02:16:21.513Z,0.10
2022-11-14T02:18:51.392Z,0.10
2022-11-14T02:21:21.439Z,0.10
2022-11-14T02:23:51.461Z,1.00
2022-11-14T02:26:22.095Z,1.00
2022-11-14T02:28:51.581Z,1.00
2022-11-14T02:31:21.263Z,1.00
2022-11-14T02:33:51.355Z,1.60
2022-11-14T02:36:21.534Z,1.60
2022-11-14T02:38:51.229Z,1.60
2022-11-14T02:41:21.362Z,1.60
2022-11-14T02:43:51.234Z,1.80
2022-11-14T02:46:21.367Z,1.80
2022-11-14T02:51:21.243Z,1.80
2022-11-14T02:53:51.250Z,0.30
2022-11-14T02:56:21.266Z,0.30
2022-11-14T02:58:51.500Z,0.30
2022-11-14T03:01:21.822Z,0.30
2022-11-14T03:06:21.568Z,0.30
2022-11-14T03:08:51.235Z,0.30
2022-11-14T03:11:21.731Z,0.30
2022-11-14T03:13:51.229Z,2.10
2022-11-14T03:16:21.404Z,2.10
2022-11-14T03:18:51.391Z,2.10
2022-11-14T03:21:22.236Z,2.10
2022-11-14T03:23:51.711Z,1.00
2022-11-14T03:26:21.273Z,1.00
2022-11-14T03:33:51.448Z,1.00
2022-11-14T03:36:21.507Z,1.00
2022-11-14T03:38:51.260Z,1.00
2022-11-14T03:41:21.536Z,1.00
2022-11-14T03:43:51.224Z,1.00
2022-11-14T03:46:21.538Z,1.00
2022-11-14T03:48:51.498Z,1.00
2022-11-14T03:51:21.279Z,1.00
2022-11-14T03:53:51.240Z,1.00
2022-11-14T03:56:21.409Z,1.00
2022-11-14T03:58:51.539Z,1.00
2022-11-14T04:01:21.588Z,1.00
2022-11-14T04:03:51.981Z,0.30
2022-11-14T04:06:21.274Z,0.30
2022-11-14T04:08:51.289Z,0.30
2022-11-14T04:11:21.885Z,0.30
2022-11-14T04:13:51.411Z,3.50
2022-11-14T04:16:21.272Z,3.50
2022-11-14T04:18:51.577Z,3.50
2022-11-14T04:21:21.269Z,3.50
2022-11-14T04:23:51.336Z,2.10
2022-11-14T04:26:21.415Z,2.10
2022-11-14T04:28:51.259Z,2.10
2022-11-14T04:31:21.240Z,2.10
2022-11-14T04:33:51.426Z,1.20
2022-11-14T04:36:21.494Z,1.20
2022-11-14T04:38:51.284Z,1.20
2022-11-14T04:41:21.607Z,1.20
2022-11-14T04:43:51.273Z,5.60
2022-11-14T04:46:21.700Z,5.60
2022-11-14T04:48:51.348Z,5.60
2022-11-14T04:53:51.480Z,1.50
2022-11-14T04:56:22.302Z,1.50
2022-11-14T04:58:51.285Z,1.50
2022-11-14T05:01:21.449Z,1.50
2022-11-14T05:03:51.306Z,1.70
2022-11-14T05:06:21.370Z,1.70
2022-11-14T05:08:51.310Z,1.70
2022-11-14T05:11:24.171Z,1.70
2022-11-14T05:13:51.284Z,2.40
2022-11-14T05:16:21.305Z,2.40
2022-11-14T05:18:53.335Z,2.40
2022-11-14T05:21:21.526Z,2.40
2022-11-14T05:23:51.393Z,3.50
2022-11-14T05:26:21.478Z,3.50
2022-11-14T05:28:51.309Z,3.50
2022-11-14T05:33:51.605Z,1.40
2022-11-14T05:36:21.395Z,1.40
2022-11-14T05:38:51.306Z,1.40
2022-11-14T05:41:21.369Z,1.40
2022-11-14T05:46:21.635Z,0.90
2022-11-14T05:48:51.280Z,0.90
2022-11-14T05:51:21.585Z,0.90
2022-11-14T05:56:21.435Z,0.70
2022-11-14T05:58:51.486Z,0.70
2022-11-14T06:06:21.687Z,4.40
2022-11-14T06:08:52.197Z,4.40
2022-11-14T06:11:21.496Z,4.40
2022-11-14T06:13:51.305Z,2.60
2022-11-14T06:16:21.327Z,2.60
2022-11-14T06:18:52.995Z,2.60
2022-11-14T06:21:24.010Z,2.60
2022-11-14T06:23:51.891Z,0.30
2022-11-14T06:26:22.876Z,0.30
2022-11-14T06:31:22.823Z,0.30
2022-11-14T06:36:22.111Z,0.50
2022-11-14T06:38:51.447Z,0.50
2022-11-14T06:41:22.254Z,0.50
2022-11-14T06:43:53.298Z,0.20
2022-11-14T06:46:22.347Z,0.20
2022-11-14T06:48:51.627Z,0.20
2022-11-14T06:51:21.493Z,0.20
2022-11-14T06:53:51.488Z,3.10
2022-11-14T06:56:21.420Z,3.10
2022-11-14T06:58:51.452Z,3.10
2022-11-14T07:01:22.839Z,3.10
2022-11-14T07:03:51.644Z,0.60
2022-11-14T07:06:23.379Z,0.60
2022-11-14T07:11:25.160Z,0.60
2022-11-14T07:13:52.710Z,1.00
2022-11-14T07:16:23.689Z,1.00
2022-11-14T07:18:51.592Z,1.00
2022-11-14T07:21:21.942Z,1.00
2022-11-14T07:26:22.437Z,0.10
2022-11-14T07:28:54.465Z,0.10
2022-11-14T07:31:21.465Z,0.10
2022-11-14T07:33:51.380Z,1.30
2022-11-14T07:36:22.636Z,1.30
2022-11-14T07:41:21.438Z,1.30
2022-11-14T07:46:21.313Z,4.10
2022-11-14T07:51:21.801Z,4.10
2022-11-14T07:53:52.419Z,4.50
2022-11-14T07:56:21.393Z,4.50
2022-11-14T07:58:51.437Z,4.50
2022-11-14T08:01:21.694Z,4.50
2022-11-14T08:03:51.477Z,2.20
2022-11-14T08:06:22.518Z,2.20
2022-11-14T08:08:51.341Z,2.20
2022-11-14T08:11:35.174Z,2.20
2022-11-14T08:13:51.339Z,2.60
2022-11-14T08:16:21.689Z,2.60
2022-11-14T08:18:51.360Z,2.60
2022-11-14T08:21:21.346Z,2.60
2022-11-14T08:23:51.476Z,20.30
2022-11-14T08:26:21.627Z,20.30
2022-11-14T08:28:52.414Z,20.30
2022-11-14T08:31:21.494Z,20.30
2022-11-14T08:33:51.910Z,1.00
2022-11-14T08:36:21.481Z,1.00
2022-11-14T08:38:51.713Z,1.00
2022-11-14T08:41:21.633Z,1.00
2022-11-14T08:43:51.362Z,1.70
2022-11-14T08:46:21.349Z,1.70
2022-11-14T08:48:51.550Z,1.70
2022-11-14T08:51:21.446Z,1.70
2022-11-14T08:53:51.841Z,2.20
2022-11-14T08:56:21.405Z,2.20
2022-11-14T08:58:51.493Z,2.20
2022-11-14T09:01:21.484Z,2.20
2022-11-14T09:03:58.390Z,0.80
2022-11-14T09:06:21.359Z,0.80
2022-11-14T09:08:51.423Z,0.80
2022-11-14T09:11:21.365Z,0.80
2022-11-14T09:13:51.505Z,1.90
2022-11-14T09:16:21.472Z,1.90
2022-11-14T09:18:51.492Z,1.90
2022-11-14T09:23:51.633Z,1.80
2022-11-14T09:26:21.507Z,1.80
2022-11-14T09:31:21.737Z,1.80
2022-11-14T09:33:51.408Z,0.70
2022-11-14T09:36:22.282Z,0.70
2022-11-14T09:38:52.206Z,0.70
2022-11-14T09:41:24.053Z,0.70
2022-11-14T09:44:07.408Z,2.00
2022-11-14T09:46:24.966Z,2.00
2022-11-14T09:48:51.935Z,2.00
2022-11-14T09:51:24.544Z,2.00
2022-11-14T09:53:59.486Z,0.90
2022-11-14T09:56:24.026Z,0.90
2022-11-14T09:58:52.443Z,0.90
2022-11-14T10:01:31.667Z,0.90
2022-11-14T10:06:30.232Z,0.80
2022-11-14T10:09:07.394Z,0.80
2022-11-14T10:11:27.996Z,0.80
2022-11-14T10:14:07.510Z,0.20
2022-11-14T10:16:33.161Z,0.20
2022-11-14T10:19:02.387Z,0.20
2022-11-14T10:21:37.412Z,2.00
2022-11-14T10:23:59.742Z,2.00
2022-11-14T10:26:29.034Z,2.00
2022-11-14T10:29:04.393Z,2.00
2022-11-14T10:31:33.068Z,9.10
2022-11-14T10:34:01.370Z,9.10
2022-11-14T10:36:33.994Z,9.10
2022-11-14T10:39:01.068Z,9.10
2022-11-14T10:41:50.048Z,9.10
2022-11-14T10:46:28.758Z,4.10
2022-11-14T10:48:55.073Z,4.10
2022-11-14T10:51:28.458Z,4.10
2022-11-14T10:53:55.431Z,3.10
2022-11-14T10:56:21.867Z,3.10
2022-11-14T10:58:51.946Z,3.10
2022-11-14T11:01:33.462Z,1.90
2022-11-14T11:03:51.592Z,1.90
2022-11-14T11:06:25.660Z,1.90
2022-11-14T11:09:01.529Z,1.90
2022-11-14T11:11:28.699Z,2.30
2022-11-14T11:13:54.434Z,2.30
2022-11-14T11:16:23.734Z,2.30
2022-11-14T11:18:51.938Z,2.30
2022-11-14T11:21:22.780Z,2.30
2022-11-14T11:23:53.908Z,2.40
2022-11-14T11:26:23.398Z,2.40
2022-11-14T11:29:04.727Z,2.40
2022-11-14T11:31:21.434Z,2.40
2022-11-14T11:33:52.344Z,1.10
2022-11-14T11:36:24.104Z,1.10
2022-11-14T11:38:51.596Z,1.10
2022-11-14T11:42:07.210Z,1.10
2022-11-14T11:43:57.033Z,1.10
2022-11-14T11:46:29.203Z,1.10
2022-11-14T11:49:01.612Z,1.10
2022-11-14T11:51:24.817Z,1.00
2022-11-14T11:53:58.953Z,1.00
2022-11-14T11:56:25.365Z,1.00
2022-11-14T11:58:56.441Z,1.00
2022-11-14T12:01:21.782Z,1.00
2022-11-14T12:03:53.418Z,0.60
2022-11-14T12:06:24.551Z,0.60
2022-11-14T12:09:03.728Z,0.60
2022-11-14T12:11:25.439Z,0.50
2022-11-14T12:14:05.686Z,0.50
2022-11-14T12:16:40.032Z,0.50
2022-11-14T12:19:10.744Z,0.50
2022-11-14T12:21:40.743Z,1.00
2022-11-14T12:24:07.416Z,1.00
2022-11-14T12:26:34.320Z,1.00
2022-11-14T12:29:10.358Z,1.00
2022-11-14T12:31:22.385Z,3.20
2022-11-14T12:33:57.005Z,3.20
2022-11-14T12:36:28.134Z,3.20
2022-11-14T12:38:53.923Z,3.20
2022-11-14T12:41:26.033Z,2.80
2022-11-14T12:43:51.490Z,2.80
2022-11-14T12:46:21.506Z,2.80
2022-11-14T12:48:51.423Z,2.80
2022-11-14T12:51:41.432Z,2.30
2022-11-14T12:53:52.869Z,2.30
2022-11-14T12:56:41.241Z,2.30
2022-11-14T12:59:06.011Z,2.30
2022-11-14T13:01:40.760Z,5.70
2022-11-14T13:04:08.549Z,5.70
2022-11-14T13:06:26.072Z,5.70
2022-11-14T13:09:08.112Z,5.70
2022-11-14T13:11:42.874Z,3.20
2022-11-14T13:14:10.059Z,3.20
2022-11-14T13:16:34.235Z,3.20
2022-11-14T13:19:04.673Z,3.20
2022-11-14T13:21:33.959Z,3.50
2022-11-14T13:23:55.007Z,3.50
2022-11-14T13:26:35.861Z,3.50
2022-11-14T13:28:52.764Z,3.50
2022-11-14T13:31:23.457Z,2.90
2022-11-14T13:33:58.079Z,2.90
2022-11-14T13:36:31.038Z,2.90
2022-11-14T13:39:05.995Z,2.90
2022-11-14T13:41:47.014Z,1.70
2022-11-14T13:44:07.487Z,1.70
2022-11-14T13:46:36.905Z,1.70
2022-11-14T13:49:05.095Z,1.70
2022-11-14T13:51:42.996Z,2.10
2022-11-14T13:56:31.334Z,2.10
2022-11-14T13:59:13.331Z,2.10
2022-11-14T14:01:36.516Z,1.90
2022-11-14T14:04:07.707Z,1.90
2022-11-14T14:06:35.846Z,1.90
2022-11-14T14:09:06.150Z,1.90
2022-11-14T14:11:42.893Z,2.20
2022-11-14T14:14:02.578Z,2.20
2022-11-14T14:16:33.489Z,2.20
2022-11-14T14:19:00.347Z,2.20
2022-11-14T14:21:33.609Z,2.50
2022-11-14T14:24:02.311Z,2.50
2022-11-14T14:26:31.539Z,2.50
2022-11-14T14:29:06.098Z,2.50
2022-11-14T14:31:22.412Z,2.00
2022-11-14T14:33:51.917Z,2.00
2022-11-14T14:36:24.612Z,2.00
2022-11-14T14:39:08.669Z,2.00
2022-11-14T14:41:22.575Z,1.40
2022-11-14T14:43:54.494Z,1.40
2022-11-14T14:46:28.266Z,1.40
2022-11-14T14:48:51.699Z,1.40
2022-11-14T14:51:29.605Z,2.60
2022-11-14T14:53:52.822Z,2.60
2022-11-14T14:56:23.961Z,2.60
2022-11-14T14:58:51.731Z,2.60
2022-11-14T15:01:27.202Z,1.80
2022-11-14T15:03:56.993Z,1.80
2022-11-14T15:06:29.572Z,1.80
2022-11-14T15:08:51.539Z,1.80
2022-11-14T15:11:22.402Z,0.70
2022-11-14T15:13:54.551Z,0.70
2022-11-14T15:16:22.482Z,0.70
2022-11-14T15:18:53.699Z,0.70
2022-11-14T15:21:26.377Z,0.70
2022-11-14T15:23:58.281Z,0.70
2022-11-14T15:26:21.723Z,0.70
2022-11-14T15:28:51.549Z,0.70
2022-11-14T15:31:23.143Z,3.90
2022-11-14T15:34:02.749Z,3.90
2022-11-14T15:36:21.583Z,3.90
2022-11-14T15:39:00.654Z,3.90
2022-11-14T15:41:23.229Z,1.20
2022-11-14T15:43:54.187Z,1.20
2022-11-14T15:46:36.840Z,1.20
2022-11-14T15:48:51.546Z,1.20
2022-11-14T15:53:53.503Z,0.50
2022-11-14T15:56:21.767Z,0.50
2022-11-14T15:58:52.669Z,0.50
2022-11-14T16:01:23.301Z,1.10
2022-11-14T16:03:51.486Z,1.10
2022-11-14T16:06:21.577Z,1.10
2022-11-14T16:08:51.666Z,1.10
2022-11-14T16:11:21.576Z,0.70
2022-11-14T16:16:21.537Z,0.70
2022-11-14T16:18:51.649Z,0.70
2022-11-14T16:21:21.852Z,2.10
2022-11-14T16:23:51.733Z,2.10
2022-11-14T16:26:21.507Z,2.10
2022-11-14T16:28:51.956Z,2.10
2022-11-14T16:31:24.067Z,1.20
2022-11-14T16:33:51.550Z,1.20
2022-11-14T16:36:22.068Z,1.20
2022-11-14T16:38:55.652Z,1.20
2022-11-14T16:41:21.523Z,0.50
2022-11-14T16:43:53.394Z,0.50
2022-11-14T16:46:22.244Z,0.50
2022-11-14T16:48:51.713Z,0.50
2022-11-14T16:51:46.574Z,3.10
2022-11-14T16:56:21.649Z,3.10
2022-11-14T16:58:53.582Z,3.10
2022-11-14T17:01:21.979Z,0.90
2022-11-14T17:03:51.540Z,0.90
2022-11-14T17:06:21.670Z,0.90
2022-11-14T17:08:53.391Z,0.90
2022-11-14T17:11:22.170Z,0.70
2022-11-14T17:16:22.118Z,0.70
2022-11-14T17:18:52.922Z,0.70
2022-11-14T17:21:23.039Z,1.10
2022-11-14T17:23:53.131Z,1.10
2022-11-14T17:26:22.006Z,1.10
2022-11-14T17:31:21.644Z,0.80
2022-11-14T17:36:23.216Z,0.80
2022-11-14T17:38:52.113Z,0.80
2022-11-14T17:41:21.667Z,0.60
2022-11-14T17:48:52.103Z,0.60
2022-11-14T17:51:21.532Z,1.10
2022-11-14T17:58:52.985Z,1.10
2022-11-14T18:01:23.946Z,0.40
2022-11-14T18:13:54.345Z,0.40
2022-11-14T18:16:23.473Z,0.40
2022-11-14T18:21:24.277Z,1.10
2022-11-14T18:23:53.274Z,1.10
2022-11-14T18:26:26.514Z,1.10
2022-11-14T18:28:53.563Z,1.10
2022-11-14T18:31:21.817Z,0.50
2022-11-14T18:33:51.940Z,0.50
2022-11-14T18:38:51.869Z,0.50
2022-11-14T18:41:21.726Z,0.40
2022-11-14T18:43:53.505Z,0.40
2022-11-14T18:46:23.572Z,0.40
2022-11-14T18:48:54.757Z,0.40
2022-11-14T18:51:24.821Z,0.30
2022-11-14T18:53:54.249Z,0.30
2022-11-14T18:56:23.793Z,0.30
2022-11-14T18:58:52.688Z,0.30
2022-11-14T19:01:25.129Z,1.00
2022-11-14T19:03:54.618Z,1.00
2022-11-14T19:06:21.905Z,1.00
2022-11-14T19:08:55.244Z,1.00
2022-11-14T19:11:31.396Z,0.70
2022-11-14T19:13:51.644Z,0.70
2022-11-14T19:18:51.945Z,0.70
2022-11-14T19:21:21.605Z,0.70
2022-11-14T19:23:52.944Z,0.70
2022-11-14T19:26:23.532Z,0.70
2022-11-14T19:28:51.703Z,0.70
2022-11-14T19:31:22.867Z,1.00
2022-11-14T19:33:51.607Z,1.00
2022-11-14T19:41:24.327Z,0.30
2022-11-14T19:43:52.620Z,0.30
2022-11-14T19:46:24.174Z,0.30
2022-11-14T19:51:21.957Z,0.50
2022-11-14T19:53:52.472Z,0.50
2022-11-14T19:56:23.448Z,0.50
2022-11-14T20:01:24.982Z,2.20
2022-11-14T20:03:54.020Z,2.20
2022-11-14T20:06:24.204Z,2.20
2022-11-14T20:08:53.309Z,2.20
2022-11-14T20:11:25.183Z,1.10
2022-11-14T20:16:24.005Z,1.10
2022-11-14T20:21:23.452Z,0.20
2022-11-14T20:23:52.665Z,0.20
2022-11-14T20:26:22.292Z,0.20
2022-11-14T20:28:53.025Z,0.20
2022-11-14T20:31:23.222Z,1.30
2022-11-14T20:33:53.127Z,1.30
2022-11-14T20:36:24.181Z,1.30
2022-11-14T20:41:21.932Z,1.40
2022-11-14T20:43:51.720Z,1.40
2022-11-14T20:48:51.893Z,1.40
2022-11-14T20:51:23.628Z,0.50
2022-11-14T20:53:53.549Z,0.50
2022-11-14T20:58:51.613Z,0.50
2022-11-14T21:01:21.830Z,0.40
2022-11-14T21:03:52.063Z,0.40
2022-11-14T21:11:22.475Z,1.50
2022-11-14T21:13:59.322Z,1.50
2022-11-14T21:16:24.044Z,1.50
2022-11-14T21:18:52.929Z,1.50
2022-11-14T21:21:23.747Z,1.50
2022-11-14T21:23:52.984Z,1.50
2022-11-14T21:26:23.445Z,1.50
2022-11-14T21:28:53.059Z,1.50
2022-11-14T21:31:24.319Z,1.60
2022-11-14T21:33:55.752Z,1.60
2022-11-14T21:36:43.938Z,1.60
2022-11-14T21:38:52.155Z,1.60
2022-11-14T21:41:23.269Z,0.80
2022-11-14T21:43:53.769Z,0.80
2022-11-14T21:46:22.395Z,0.80
2022-11-14T21:48:52.744Z,0.80
2022-11-14T21:51:24.234Z,0.70
2022-11-14T21:53:53.915Z,0.70
2022-11-14T21:59:01.569Z,0.70
2022-11-14T22:06:22.547Z,1.70
2022-11-14T22:08:53.055Z,1.70
2022-11-14T22:13:51.873Z,0.50
2022-11-14T22:18:52.463Z,0.50
2022-11-14T22:21:21.753Z,1.10
2022-11-14T22:23:52.164Z,1.10
2022-11-14T22:26:22.279Z,1.10
2022-11-14T22:28:51.641Z,1.10
2022-11-14T22:31:23.275Z,0.60
2022-11-14T22:33:53.057Z,0.60
2022-11-14T22:36:23.081Z,0.60
2022-11-14T22:38:53.153Z,0.60
2022-11-14T22:41:26.463Z,0.80
2022-11-14T22:43:51.959Z,0.80
2022-11-14T22:46:22.683Z,0.80
2022-11-14T22:48:51.803Z,0.80
2022-11-14T22:51:23.313Z,0.30
2022-11-14T22:53:54.008Z,0.30
2022-11-14T22:56:24.572Z,0.30
2022-11-14T22:58:51.654Z,0.30
2022-11-14T23:01:24.089Z,0.90
2022-11-14T23:03:53.569Z,0.90
2022-11-14T23:11:24.344Z,1.10
2022-11-14T23:16:23.793Z,1.10
2022-11-14T23:21:23.814Z,0.40
2022-11-14T23:23:52.744Z,0.40
2022-11-14T23:28:51.966Z,0.40
2022-11-14T23:31:22.323Z,0.30
2022-11-14T23:33:53.930Z,0.30
2022-11-14T23:36:21.899Z,0.30
2022-11-14T23:38:51.934Z,0.30
2022-11-14T23:41:24.393Z,1.10
2022-11-14T23:46:22.079Z,1.10
2022-11-14T23:48:52.617Z,1.10
2022-11-14T23:51:21.726Z,1.50
2022-11-14T23:56:21.970Z,1.50
